Terminal Aerodrome Forecast
Issued by NWS

Home | Current Version | Previous Version | Text Only | Print | Product List | Glossary On
Versions: 1 2 3 4 5 6 7 8 9 10 11 12
298
FTUS45 KABQ 251120
TAFFMN
TAF
KFMN 251120Z 2512/2612 06005KT P6SM SKC
     FM251700 20007KT P6SM FEW200
     FM252000 23018G28KT P6SM FEW120
     FM260200 21009KT P6SM SCT120
     FM260600 06005KT P6SM BKN110=

USA.gov is the U.S. government's official web portal to all federal, state and local government web resources and services.